createdAt,value
2023-03-25T00:00:39.879Z,11.17
2023-03-25T00:01:39.834Z,11.17
2023-03-25T00:02:39.893Z,11.11
2023-03-25T00:03:39.834Z,11.02
2023-03-25T00:04:39.847Z,11.08
2023-03-25T00:05:39.796Z,10.97
2023-03-25T00:06:39.775Z,11.02
2023-03-25T00:07:39.789Z,10.96
2023-03-25T00:08:39.757Z,10.93
2023-03-25T00:09:39.753Z,10.87
2023-03-25T00:10:39.737Z,10.93
2023-03-25T00:11:39.729Z,10.99
2023-03-25T00:12:39.745Z,10.94
2023-03-25T00:13:39.706Z,10.92
2023-03-25T00:14:39.705Z,10.97
2023-03-25T00:15:39.682Z,10.93
2023-03-25T00:16:39.685Z,10.92
2023-03-25T00:17:39.684Z,10.92
2023-03-25T00:18:39.666Z,10.97
2023-03-25T00:19:39.655Z,10.92
2023-03-25T00:20:39.633Z,10.90
2023-03-25T00:21:39.617Z,10.76
2023-03-25T00:22:39.598Z,10.82
2023-03-25T00:23:39.633Z,10.84
2023-03-25T00:24:39.588Z,10.81
2023-03-25T00:25:39.576Z,10.84
2023-03-25T00:26:39.591Z,10.89
2023-03-25T00:27:39.556Z,10.86
2023-03-25T00:28:39.559Z,10.75
2023-03-25T00:29:39.548Z,10.75
2023-03-25T00:30:39.543Z,10.87
2023-03-25T00:31:39.509Z,10.79
2023-03-25T00:32:39.514Z,10.84
2023-03-25T00:33:39.474Z,10.79
2023-03-25T00:34:39.488Z,10.86
2023-03-25T00:35:39.604Z,10.82
2023-03-25T00:36:39.453Z,10.82
2023-03-25T00:37:39.444Z,10.81
2023-03-25T00:38:39.432Z,10.76
2023-03-25T00:39:39.425Z,10.78
2023-03-25T00:40:39.404Z,10.72
2023-03-25T00:41:39.382Z,10.68
2023-03-25T00:42:39.406Z,10.78
2023-03-25T00:43:39.385Z,10.71
2023-03-25T00:44:39.362Z,10.71
2023-03-25T00:45:39.396Z,10.75
2023-03-25T00:46:39.377Z,10.76
2023-03-25T00:47:39.381Z,10.82
2023-03-25T00:48:39.321Z,10.82
2023-03-25T00:49:39.308Z,10.79
2023-03-25T00:50:39.301Z,10.87
2023-03-25T00:51:53.240Z,10.79
2023-03-25T00:52:40.278Z,10.78
2023-03-25T00:53:39.273Z,10.71
2023-03-25T00:54:39.261Z,10.87
2023-03-25T00:55:39.235Z,10.76
2023-03-25T00:56:39.251Z,10.81
2023-03-25T00:57:39.252Z,10.82
2023-03-25T00:58:39.212Z,10.72
2023-03-25T00:59:39.199Z,10.74
2023-03-25T01:00:39.187Z,10.67
2023-03-25T01:01:39.208Z,10.57
2023-03-25T01:02:39.452Z,10.56
2023-03-25T01:03:39.325Z,10.54
2023-03-25T01:04:41.566Z,10.49
2023-03-25T01:05:39.123Z,10.57
2023-03-25T01:06:39.145Z,10.57
2023-03-25T01:07:39.134Z,10.59
2023-03-25T01:08:39.111Z,10.59
2023-03-25T01:09:39.095Z,10.54
2023-03-25T01:10:39.097Z,10.56
2023-03-25T01:11:39.070Z,10.59
2023-03-25T01:12:39.047Z,10.53
2023-03-25T01:13:39.037Z,10.49
2023-03-25T01:14:39.037Z,10.41
2023-03-25T01:15:39.073Z,10.54
2023-03-25T01:16:39.032Z,10.53
2023-03-25T01:17:39.052Z,10.49
2023-03-25T01:18:38.993Z,10.44
2023-03-25T01:19:38.977Z,10.54
2023-03-25T01:20:38.964Z,10.51
2023-03-25T01:21:38.999Z,10.57
2023-03-25T01:22:38.949Z,10.54
2023-03-25T01:23:38.958Z,10.51
2023-03-25T01:24:38.928Z,10.49
2023-03-25T01:25:38.918Z,10.59
2023-03-25T01:26:38.902Z,10.53
2023-03-25T01:27:38.907Z,10.42
2023-03-25T01:28:38.878Z,10.46
2023-03-25T01:29:38.871Z,10.46
2023-03-25T01:30:38.867Z,10.54
2023-03-25T01:31:38.945Z,10.38
2023-03-25T01:32:38.881Z,10.46
2023-03-25T01:33:38.821Z,10.41
2023-03-25T01:34:38.873Z,10.28
2023-03-25T01:35:38.858Z,10.44
2023-03-25T01:36:38.783Z,10.40
2023-03-25T01:37:38.805Z,10.51
2023-03-25T01:38:38.777Z,10.41
2023-03-25T01:39:38.805Z,10.41
2023-03-25T01:40:38.749Z,10.42
2023-03-25T01:41:49.227Z,10.30
2023-03-25T01:42:39.745Z,10.37
2023-03-25T01:43:38.728Z,10.38
2023-03-25T01:44:38.703Z,10.28
2023-03-25T01:45:38.691Z,10.30
2023-03-25T01:46:38.726Z,10.26
2023-03-25T01:47:38.699Z,10.23
2023-03-25T01:48:38.686Z,10.25
2023-03-25T01:49:38.671Z,10.26
2023-03-25T01:50:38.636Z,10.28
2023-03-25T01:51:38.632Z,10.38
2023-03-25T01:52:38.612Z,10.38
2023-03-25T01:53:38.612Z,10.25
2023-03-25T01:54:38.618Z,10.26
2023-03-25T01:55:38.629Z,10.25
2023-03-25T01:56:38.587Z,10.22
2023-03-25T01:57:38.566Z,10.23
2023-03-25T01:58:38.554Z,10.22
2023-03-25T01:59:38.535Z,10.28
2023-03-25T02:00:38.534Z,10.23
2023-03-25T02:01:38.537Z,10.28
2023-03-25T02:02:38.524Z,10.20
2023-03-25T02:03:38.520Z,10.17
2023-03-25T02:04:38.490Z,10.30
2023-03-25T02:05:38.470Z,10.26
2023-03-25T02:06:38.491Z,10.25
2023-03-25T02:07:38.460Z,10.35
2023-03-25T02:08:38.456Z,10.31
2023-03-25T02:09:38.437Z,10.26
2023-03-25T02:10:38.448Z,10.34
2023-03-25T02:11:38.462Z,10.40
2023-03-25T02:12:38.415Z,10.37
2023-03-25T02:13:38.390Z,10.28
2023-03-25T02:14:38.379Z,10.31
2023-03-25T02:15:38.376Z,10.38
2023-03-25T02:16:38.416Z,10.28
2023-03-25T02:17:38.342Z,10.31
2023-03-25T02:18:38.342Z,10.26
2023-03-25T02:19:38.319Z,10.41
2023-03-25T02:20:38.321Z,10.38
2023-03-25T02:21:38.299Z,10.40
2023-03-25T02:22:38.312Z,10.42
2023-03-25T02:23:38.282Z,10.46
2023-03-25T02:24:38.267Z,10.44
2023-03-25T02:25:38.269Z,10.56
2023-03-25T02:26:38.257Z,10.54
2023-03-25T02:27:38.279Z,10.59
2023-03-25T02:28:38.229Z,10.69
2023-03-25T02:29:38.218Z,10.75
2023-03-25T02:30:38.233Z,10.67
2023-03-25T02:31:38.363Z,10.81
2023-03-25T02:32:38.228Z,10.81
2023-03-25T02:33:38.169Z,10.82
2023-03-25T02:34:38.193Z,10.67
2023-03-25T02:35:38.161Z,10.71
2023-03-25T02:36:38.133Z,10.64
2023-03-25T02:37:38.129Z,10.87
2023-03-25T02:38:38.121Z,10.79
2023-03-25T02:39:38.099Z,10.82
2023-03-25T02:40:38.103Z,10.81
2023-03-25T02:41:38.082Z,10.84
2023-03-25T02:42:38.082Z,10.69
2023-03-25T02:43:38.093Z,10.78
2023-03-25T02:44:38.055Z,10.69
2023-03-25T02:45:38.098Z,10.74
2023-03-25T02:46:38.045Z,10.69
2023-03-25T02:47:38.073Z,10.69
2023-03-25T02:48:38.011Z,10.69
2023-03-25T02:49:38.002Z,10.67
2023-03-25T02:50:37.985Z,10.68
2023-03-25T02:51:37.985Z,10.71
2023-03-25T02:52:37.978Z,10.54
2023-03-25T02:53:37.980Z,10.53
2023-03-25T02:54:37.951Z,10.56
2023-03-25T02:55:39.013Z,10.51
2023-03-25T02:56:38.007Z,10.46
2023-03-25T02:57:37.927Z,10.38
2023-03-25T02:58:37.902Z,10.48
2023-03-25T02:59:37.923Z,10.53
2023-03-25T03:00:37.880Z,10.48
2023-03-25T03:01:37.966Z,10.57
2023-03-25T03:02:38.043Z,10.53
2023-03-25T03:03:37.877Z,10.59
2023-03-25T03:04:37.836Z,10.51
2023-03-25T03:05:37.831Z,10.54
2023-03-25T03:06:37.817Z,10.56
2023-03-25T03:07:37.824Z,10.56
2023-03-25T03:08:37.799Z,10.54
2023-03-25T03:09:37.777Z,10.54
2023-03-25T03:10:37.775Z,10.57
2023-03-25T03:11:37.765Z,10.53
2023-03-25T03:12:37.773Z,10.48
2023-03-25T03:13:37.753Z,10.57
2023-03-25T03:14:37.717Z,10.60
2023-03-25T03:15:37.742Z,10.57
2023-03-25T03:16:37.730Z,10.48
2023-03-25T03:17:37.740Z,10.54
2023-03-25T03:18:37.777Z,10.59
2023-03-25T03:19:37.688Z,10.60
2023-03-25T03:20:37.653Z,10.61
2023-03-25T03:21:37.648Z,10.57
2023-03-25T03:22:37.633Z,10.63
2023-03-25T03:23:37.620Z,10.61
2023-03-25T03:24:37.630Z,10.60
2023-03-25T03:25:37.636Z,10.57
2023-03-25T03:26:37.587Z,10.53
2023-03-25T03:27:37.576Z,10.60
2023-03-25T03:28:37.577Z,10.57
2023-03-25T03:29:37.574Z,10.48
2023-03-25T03:30:37.547Z,10.40
2023-03-25T03:31:48.377Z,10.41
2023-03-25T03:32:38.581Z,10.48
2023-03-25T03:33:37.522Z,10.42
2023-03-25T03:34:37.518Z,10.44
2023-03-25T03:35:37.540Z,10.44
2023-03-25T03:36:37.495Z,10.41
2023-03-25T03:37:37.478Z,10.42
2023-03-25T03:38:37.460Z,10.44
2023-03-25T03:39:37.458Z,10.37
2023-03-25T03:40:37.466Z,10.41
2023-03-25T03:41:37.457Z,10.35
2023-03-25T03:42:37.417Z,10.25
2023-03-25T03:43:37.412Z,10.23
2023-03-25T03:44:37.412Z,10.25
2023-03-25T03:45:37.399Z,10.25
2023-03-25T03:46:37.445Z,10.30
2023-03-25T03:47:37.436Z,10.30
2023-03-25T03:48:37.361Z,10.23
2023-03-25T03:49:37.344Z,10.31
2023-03-25T03:50:37.358Z,10.23
2023-03-25T03:51:37.331Z,10.20
2023-03-25T03:52:37.311Z,10.10
2023-03-25T03:53:37.307Z,10.19
2023-03-25T03:54:37.302Z,10.13
2023-03-25T03:55:37.284Z,10.17
2023-03-25T03:56:37.546Z,10.17
2023-03-25T03:57:37.258Z,10.22
2023-03-25T03:58:37.241Z,10.28
2023-03-25T03:59:37.239Z,10.28
2023-03-25T04:00:37.220Z,10.22
2023-03-25T04:01:37.234Z,10.28
2023-03-25T04:02:37.234Z,10.35
2023-03-25T04:03:37.255Z,10.28
2023-03-25T04:04:37.184Z,10.37
2023-03-25T04:05:37.164Z,10.35
2023-03-25T04:06:37.160Z,10.26
2023-03-25T04:07:37.158Z,10.35
2023-03-25T04:08:37.148Z,10.38
2023-03-25T04:09:37.119Z,10.41
2023-03-25T04:10:37.121Z,10.30
2023-03-25T04:11:37.104Z,10.42
2023-03-25T04:12:37.094Z,10.26
2023-03-25T04:13:37.107Z,10.38
2023-03-25T04:14:37.073Z,10.35
2023-03-25T04:15:37.070Z,10.38
2023-03-25T04:16:37.077Z,10.42
2023-03-25T04:17:37.081Z,10.37
2023-03-25T04:18:37.045Z,10.40
2023-03-25T04:19:37.028Z,10.41
2023-03-25T04:20:37.009Z,10.40
2023-03-25T04:21:37.007Z,10.44
2023-03-25T04:22:37.007Z,10.44
2023-03-25T04:23:36.965Z,10.46
2023-03-25T04:24:36.976Z,10.54
2023-03-25T04:25:36.964Z,10.51
2023-03-25T04:26:36.938Z,10.48
2023-03-25T04:27:36.931Z,10.49
2023-03-25T04:28:36.928Z,10.61
2023-03-25T04:29:36.924Z,10.64
2023-03-25T04:30:36.889Z,10.69
2023-03-25T04:31:36.919Z,10.60
2023-03-25T04:32:36.911Z,10.71
2023-03-25T04:33:36.866Z,10.64
2023-03-25T04:34:36.879Z,10.72
2023-03-25T04:35:36.886Z,10.74
2023-03-25T04:36:36.863Z,10.60
2023-03-25T04:37:36.830Z,10.60
2023-03-25T04:38:36.816Z,10.60
2023-03-25T04:39:36.793Z,10.61
2023-03-25T04:40:36.778Z,10.54
2023-03-25T04:41:36.777Z,10.57
2023-03-25T04:42:36.779Z,10.56
2023-03-25T04:43:36.756Z,10.49
2023-03-25T04:44:36.746Z,10.57
2023-03-25T04:45:36.849Z,10.57
2023-03-25T04:46:36.725Z,10.54
2023-03-25T04:47:36.720Z,10.53
2023-03-25T04:48:36.704Z,10.51
2023-03-25T04:49:36.702Z,10.51
2023-03-25T04:50:36.679Z,10.38
2023-03-25T04:51:36.708Z,10.44
2023-03-25T04:52:36.657Z,10.40
2023-03-25T04:53:36.650Z,10.41
2023-03-25T04:54:36.648Z,10.40
2023-03-25T04:55:36.632Z,10.35
2023-03-25T04:56:36.618Z,10.38
2023-03-25T04:57:36.596Z,10.41
2023-03-25T04:58:36.585Z,10.41
2023-03-25T04:59:36.596Z,10.34
2023-03-25T05:00:36.575Z,10.42
2023-03-25T05:01:36.575Z,10.35
2023-03-25T05:02:36.571Z,10.41
2023-03-25T05:03:36.528Z,10.38
2023-03-25T05:04:36.556Z,10.37
2023-03-25T05:05:36.531Z,10.38
2023-03-25T05:06:36.505Z,10.41
2023-03-25T05:07:36.523Z,10.35
2023-03-25T05:08:36.479Z,10.37
2023-03-25T05:09:36.475Z,10.25
2023-03-25T05:10:36.489Z,10.30
2023-03-25T05:11:36.449Z,10.35
2023-03-25T05:12:36.436Z,10.38
2023-03-25T05:13:36.425Z,10.37
2023-03-25T05:14:36.407Z,10.37
2023-03-25T05:15:36.401Z,10.42
2023-03-25T05:16:36.437Z,10.38
2023-03-25T05:17:36.410Z,10.38
2023-03-25T05:18:36.361Z,10.42
2023-03-25T05:19:36.359Z,10.41
2023-03-25T05:20:36.337Z,10.41
2023-03-25T05:21:36.359Z,10.38
2023-03-25T05:22:36.331Z,10.25
2023-03-25T05:23:36.361Z,10.26
2023-03-25T05:24:36.314Z,10.25
2023-03-25T05:25:36.293Z,10.42
2023-03-25T05:26:36.278Z,10.37
2023-03-25T05:27:36.263Z,10.42
2023-03-25T05:28:36.266Z,10.38
2023-03-25T05:29:36.254Z,10.34
2023-03-25T05:30:36.239Z,10.41
2023-03-25T05:31:36.248Z,10.38
2023-03-25T05:32:36.222Z,10.42
2023-03-25T05:33:36.207Z,10.41
2023-03-25T05:34:36.212Z,10.41
2023-03-25T05:35:36.190Z,10.53
2023-03-25T05:36:36.170Z,10.53
2023-03-25T05:37:36.160Z,10.59
2023-03-25T05:38:36.178Z,10.57
2023-03-25T05:39:36.157Z,10.59
2023-03-25T05:40:36.123Z,10.59
2023-03-25T05:41:36.112Z,10.54
2023-03-25T05:42:36.102Z,10.59
2023-03-25T05:43:36.097Z,10.56
2023-03-25T05:44:36.107Z,10.68
2023-03-25T05:45:36.246Z,10.71
2023-03-25T05:46:36.087Z,10.67
2023-03-25T05:47:36.068Z,10.71
2023-03-25T05:48:36.056Z,10.71
2023-03-25T05:49:36.030Z,10.71
2023-03-25T05:50:36.041Z,10.74
2023-03-25T05:51:36.036Z,10.72
2023-03-25T05:52:35.994Z,10.67
2023-03-25T05:53:35.986Z,10.81
2023-03-25T05:54:35.967Z,10.86
2023-03-25T05:55:38.762Z,10.67
2023-03-25T05:56:35.979Z,10.87
2023-03-25T05:57:35.962Z,10.72
2023-03-25T05:58:35.934Z,10.81
2023-03-25T05:59:35.941Z,10.78
2023-03-25T06:00:37.242Z,10.79
2023-03-25T06:01:35.916Z,10.76
2023-03-25T06:02:35.956Z,10.76
2023-03-25T06:03:35.927Z,10.74
2023-03-25T06:04:35.870Z,10.79
2023-03-25T06:05:35.863Z,10.84
2023-03-25T06:06:35.877Z,10.82
2023-03-25T06:07:35.841Z,10.81
2023-03-25T06:08:35.836Z,10.84
2023-03-25T06:09:35.820Z,10.82
2023-03-25T06:10:35.803Z,10.84
2023-03-25T06:11:35.810Z,10.76
2023-03-25T06:12:35.790Z,10.90
2023-03-25T06:13:35.772Z,10.86
2023-03-25T06:14:35.768Z,10.84
2023-03-25T06:15:35.756Z,10.92
2023-03-25T06:16:36.048Z,10.84
2023-03-25T06:17:35.754Z,10.87
2023-03-25T06:18:35.717Z,10.78
2023-03-25T06:19:35.699Z,10.81
2023-03-25T06:20:35.734Z,10.82
2023-03-25T06:21:35.676Z,10.79
2023-03-25T06:22:35.674Z,10.86
2023-03-25T06:23:35.663Z,10.92
2023-03-25T06:24:35.675Z,10.81
2023-03-25T06:25:35.637Z,10.94
2023-03-25T06:26:35.632Z,10.97
2023-03-25T06:27:35.640Z,11.04
2023-03-25T06:28:35.617Z,11.11
2023-03-25T06:29:35.596Z,11.17
2023-03-25T06:30:35.601Z,11.25
2023-03-25T06:31:35.583Z,11.29
2023-03-25T06:32:35.581Z,11.23
2023-03-25T06:33:42.446Z,11.33
2023-03-25T06:34:36.541Z,11.40
2023-03-25T06:35:35.537Z,11.44
2023-03-25T06:36:35.520Z,11.41
2023-03-25T06:37:35.506Z,11.30
2023-03-25T06:38:35.501Z,11.25
2023-03-25T06:39:35.503Z,11.36
2023-03-25T06:40:35.478Z,11.43
2023-03-25T06:41:35.464Z,11.37
2023-03-25T06:42:35.461Z,11.40
2023-03-25T06:43:35.465Z,11.41
2023-03-25T06:44:35.685Z,11.35
2023-03-25T06:45:35.434Z,11.45
2023-03-25T06:46:35.493Z,11.33
2023-03-25T06:47:35.401Z,11.30
2023-03-25T06:48:35.387Z,11.25
2023-03-25T06:49:35.390Z,11.27
2023-03-25T06:50:35.367Z,11.23
2023-03-25T06:51:35.358Z,11.25
2023-03-25T06:52:35.337Z,11.22
2023-03-25T06:53:35.336Z,11.27
2023-03-25T06:54:35.317Z,11.29
2023-03-25T06:55:35.348Z,11.30
2023-03-25T06:56:35.340Z,11.36
2023-03-25T06:57:35.297Z,11.18
2023-03-25T06:58:35.523Z,11.19
2023-03-25T06:59:35.285Z,11.30
2023-03-25T07:00:35.256Z,11.29
2023-03-25T07:01:35.325Z,11.36
2023-03-25T07:02:35.243Z,11.43
2023-03-25T07:03:35.220Z,11.41
2023-03-25T07:04:35.209Z,11.33
2023-03-25T07:05:35.246Z,11.41
2023-03-25T07:06:35.198Z,11.43
2023-03-25T07:07:35.197Z,11.22
2023-03-25T07:08:35.181Z,11.30
2023-03-25T07:09:35.153Z,11.32
2023-03-25T07:10:35.143Z,11.29
2023-03-25T07:11:35.157Z,11.36
2023-03-25T07:12:35.128Z,11.35
2023-03-25T07:13:35.143Z,11.35
2023-03-25T07:14:35.118Z,11.35
2023-03-25T07:15:35.106Z,11.40
2023-03-25T07:16:35.171Z,11.41
2023-03-25T07:17:35.164Z,11.36
2023-03-25T07:18:35.057Z,11.51
2023-03-25T07:19:35.054Z,11.52
2023-03-25T07:20:35.036Z,11.62
2023-03-25T07:21:35.030Z,11.60
2023-03-25T07:22:35.059Z,11.57
2023-03-25T07:23:35.009Z,11.66
2023-03-25T07:24:34.998Z,11.62
2023-03-25T07:25:34.989Z,11.65
2023-03-25T07:26:34.984Z,11.57
2023-03-25T07:27:34.960Z,11.55
2023-03-25T07:28:34.987Z,11.60
2023-03-25T07:29:34.946Z,11.68
2023-03-25T07:30:34.956Z,11.65
2023-03-25T07:31:34.977Z,11.84
2023-03-25T07:32:34.913Z,11.83
2023-03-25T07:33:34.916Z,11.88
2023-03-25T07:34:34.924Z,12.03
2023-03-25T07:35:34.906Z,12.03
2023-03-25T07:36:34.878Z,12.15
2023-03-25T07:37:34.853Z,12.24
2023-03-25T07:38:34.849Z,12.29
2023-03-25T07:39:34.834Z,12.39
2023-03-25T07:40:34.833Z,12.42
2023-03-25T07:41:34.807Z,12.53
2023-03-25T07:42:34.808Z,12.62
2023-03-25T07:43:34.783Z,12.73
2023-03-25T07:44:34.800Z,12.55
2023-03-25T07:45:44.171Z,12.73
2023-03-25T07:46:35.826Z,12.86
2023-03-25T07:47:34.795Z,12.95
2023-03-25T07:48:34.740Z,13.11
2023-03-25T07:49:34.725Z,13.18
2023-03-25T07:50:34.728Z,13.13
2023-03-25T07:51:34.697Z,13.12
2023-03-25T07:52:34.690Z,13.12
2023-03-25T07:53:34.675Z,13.08
2023-03-25T07:54:34.690Z,12.93
2023-03-25T07:55:34.676Z,12.90
2023-03-25T07:56:34.712Z,12.91
2023-03-25T07:57:34.640Z,12.93
2023-03-25T07:58:34.626Z,12.95
2023-03-25T07:59:52.353Z,12.87
2023-03-25T08:00:52.319Z,12.91
2023-03-25T08:01:52.356Z,12.85
2023-03-25T08:02:52.398Z,12.80
2023-03-25T08:03:52.365Z,12.72
2023-03-25T08:04:52.275Z,12.73
2023-03-25T08:05:52.490Z,12.87
2023-03-25T08:06:52.265Z,12.87
2023-03-25T08:07:52.252Z,12.86
2023-03-25T08:08:52.254Z,13.00
2023-03-25T08:09:52.259Z,12.93
2023-03-25T08:10:52.213Z,13.05
2023-03-25T08:11:52.201Z,13.35
2023-03-25T08:12:52.206Z,13.54
2023-03-25T08:13:52.199Z,13.75
2023-03-25T08:14:52.229Z,13.97
2023-03-25T08:15:52.328Z,14.15
2023-03-25T08:16:52.204Z,14.15
2023-03-25T08:17:52.168Z,13.95
2023-03-25T08:18:52.150Z,13.83
2023-03-25T08:19:52.130Z,13.86
2023-03-25T08:20:52.108Z,13.83
2023-03-25T08:21:52.089Z,13.75
2023-03-25T08:22:52.086Z,13.81
2023-03-25T08:23:52.062Z,13.79
2023-03-25T08:24:52.066Z,13.79
2023-03-25T08:25:52.170Z,13.86
2023-03-25T08:26:52.027Z,13.99
2023-03-25T08:27:52.026Z,14.08
2023-03-25T08:28:52.011Z,14.15
2023-03-25T08:29:52.024Z,14.15
2023-03-25T08:30:51.987Z,14.18
2023-03-25T08:31:52.070Z,14.20
2023-03-25T08:32:52.037Z,14.32
2023-03-25T08:33:51.962Z,14.22
2023-03-25T08:34:51.974Z,14.22
2023-03-25T08:35:52.754Z,14.14
2023-03-25T08:36:51.962Z,14.12
2023-03-25T08:37:51.949Z,14.08
2023-03-25T08:38:51.906Z,14.14
2023-03-25T08:39:51.905Z,14.20
2023-03-25T08:40:51.891Z,14.15
2023-03-25T08:41:51.894Z,14.08
2023-03-25T08:42:51.866Z,14.15
2023-03-25T08:43:51.845Z,14.29
2023-03-25T08:44:51.855Z,14.45
2023-03-25T08:45:52.118Z,14.44
2023-03-25T08:46:51.839Z,14.41
2023-03-25T08:47:51.819Z,14.44
2023-03-25T08:48:51.812Z,14.40
2023-03-25T08:49:51.790Z,14.33
2023-03-25T08:50:51.801Z,14.26
2023-03-25T08:51:51.783Z,14.44
2023-03-25T08:52:51.755Z,14.44
2023-03-25T08:53:51.729Z,14.30
2023-03-25T08:54:51.756Z,14.25
2023-03-25T08:55:52.009Z,14.14
2023-03-25T08:56:51.760Z,13.83
2023-03-25T08:57:51.730Z,13.65
2023-03-25T08:58:51.681Z,13.47
2023-03-25T08:59:51.682Z,13.31
2023-03-25T09:00:51.655Z,13.11
2023-03-25T09:01:53.302Z,13.05
2023-03-25T09:02:51.750Z,13.04
2023-03-25T09:03:51.656Z,13.25
2023-03-25T09:04:51.663Z,13.22
2023-03-25T09:05:51.767Z,13.20
2023-03-25T09:07:11.018Z,13.27
2023-03-25T09:07:52.614Z,13.30
2023-03-25T09:08:51.573Z,13.35
2023-03-25T09:09:51.559Z,13.42
2023-03-25T09:10:51.629Z,13.42
2023-03-25T09:11:51.554Z,13.57
2023-03-25T09:12:51.532Z,13.78
2023-03-25T09:13:51.546Z,13.78
2023-03-25T09:14:51.513Z,13.79
2023-03-25T09:15:51.738Z,14.20
2023-03-25T09:16:51.490Z,14.70
2023-03-25T09:17:51.517Z,15.59
2023-03-25T09:18:51.461Z,16.78
2023-03-25T09:19:52.865Z,16.50
2023-03-25T09:20:51.453Z,15.94
2023-03-25T09:21:51.437Z,15.70
2023-03-25T09:22:51.453Z,15.27
2023-03-25T09:23:51.421Z,14.96
2023-03-25T09:24:51.410Z,14.96
2023-03-25T09:25:51.648Z,14.97
2023-03-25T09:26:51.384Z,14.96
2023-03-25T09:27:51.367Z,15.14
2023-03-25T09:28:51.356Z,14.96
2023-03-25T09:29:51.359Z,15.00
2023-03-25T09:30:51.345Z,14.79
2023-03-25T09:31:51.348Z,14.73
2023-03-25T09:32:51.362Z,14.59
2023-03-25T09:33:51.327Z,14.50
2023-03-25T09:34:51.606Z,14.30
2023-03-25T09:35:51.436Z,14.18
2023-03-25T09:36:51.269Z,14.14
2023-03-25T09:37:52.220Z,13.95
2023-03-25T09:38:51.266Z,13.86
2023-03-25T09:39:51.232Z,13.68
2023-03-25T09:40:51.239Z,13.68
2023-03-25T09:41:52.081Z,13.68
2023-03-25T09:42:51.209Z,13.65
2023-03-25T09:43:51.184Z,13.56
2023-03-25T09:44:51.180Z,13.47
2023-03-25T09:45:51.359Z,13.67
2023-03-25T09:46:51.176Z,14.18
2023-03-25T09:47:51.208Z,14.40
2023-03-25T09:48:51.126Z,14.41
2023-03-25T09:49:51.115Z,14.62
2023-03-25T09:50:51.115Z,14.45
2023-03-25T09:51:51.131Z,14.43
2023-03-25T09:52:51.088Z,14.43
2023-03-25T09:53:51.093Z,14.68
2023-03-25T09:54:51.081Z,15.25
2023-03-25T09:55:51.223Z,16.58
2023-03-25T09:56:51.128Z,17.30
2023-03-25T09:57:51.036Z,17.23
2023-03-25T09:58:51.064Z,17.02
2023-03-25T09:59:51.530Z,16.89
2023-03-25T10:00:51.040Z,16.78
2023-03-25T10:01:51.037Z,16.74
2023-03-25T10:02:51.004Z,16.36
2023-03-25T10:03:51.018Z,15.90
2023-03-25T10:04:50.960Z,15.39
2023-03-25T10:05:51.154Z,15.24
2023-03-25T10:06:50.953Z,14.82
2023-03-25T10:07:51.608Z,14.68
2023-03-25T10:08:50.927Z,14.94
2023-03-25T10:09:50.920Z,14.85
2023-03-25T10:10:50.920Z,14.70
2023-03-25T10:11:50.892Z,14.47
2023-03-25T10:12:50.870Z,14.41
2023-03-25T10:13:50.869Z,14.35
2023-03-25T10:14:50.849Z,14.22
2023-03-25T10:15:51.032Z,14.14
2023-03-25T10:16:50.832Z,14.17
2023-03-25T10:17:50.841Z,13.95
2023-03-25T10:18:50.853Z,13.99
2023-03-25T10:19:50.811Z,14.22
2023-03-25T10:20:50.777Z,14.78
2023-03-25T10:21:50.762Z,15.37
2023-03-25T10:22:50.757Z,15.82
2023-03-25T10:23:50.752Z,16.00
2023-03-25T10:24:50.766Z,16.32
2023-03-25T10:25:50.854Z,16.41
2023-03-25T10:26:50.762Z,16.35
2023-03-25T10:27:50.712Z,16.49
2023-03-25T10:28:50.709Z,16.35
2023-03-25T10:29:50.679Z,16.41
2023-03-25T10:30:50.688Z,16.66
2023-03-25T10:31:50.739Z,16.83
2023-03-25T10:32:50.656Z,17.06
2023-03-25T10:33:50.638Z,17.20
2023-03-25T10:34:50.654Z,16.97
2023-03-25T10:35:50.899Z,16.75
2023-03-25T10:36:50.612Z,16.71
2023-03-25T10:37:50.596Z,16.47
2023-03-25T10:38:50.592Z,16.15
2023-03-25T10:39:50.621Z,15.75
2023-03-25T10:40:50.662Z,15.84
2023-03-25T10:41:50.552Z,15.91
2023-03-25T10:42:50.568Z,16.33
2023-03-25T10:43:50.539Z,16.54
2023-03-25T10:44:50.534Z,16.76
2023-03-25T10:45:50.777Z,16.97
2023-03-25T10:46:50.504Z,16.93
2023-03-25T10:47:50.557Z,16.94
2023-03-25T10:48:50.484Z,16.93
2023-03-25T10:49:50.469Z,17.14
2023-03-25T10:50:50.466Z,16.61
2023-03-25T10:51:50.454Z,16.58
2023-03-25T10:52:50.434Z,16.79
2023-03-25T10:53:50.432Z,17.05
2023-03-25T10:54:50.414Z,16.91
2023-03-25T10:55:50.508Z,16.99
2023-03-25T10:56:50.416Z,16.86
2023-03-25T10:57:50.374Z,16.65
2023-03-25T10:58:50.394Z,16.93
2023-03-25T10:59:50.384Z,17.01
2023-03-25T11:00:50.362Z,17.01
2023-03-25T11:01:50.330Z,17.05
2023-03-25T11:02:50.464Z,16.75
2023-03-25T11:03:50.320Z,16.51
2023-03-25T11:04:50.308Z,16.21
2023-03-25T11:05:50.434Z,16.09
2023-03-25T11:06:50.279Z,15.90
2023-03-25T11:07:50.276Z,15.83
2023-03-25T11:08:50.284Z,15.79
2023-03-25T11:09:50.242Z,15.70
2023-03-25T11:10:50.229Z,15.77
2023-03-25T11:11:50.246Z,15.91
2023-03-25T11:12:50.218Z,15.82
2023-03-25T11:13:50.195Z,15.70
2023-03-25T11:14:50.210Z,15.68
2023-03-25T11:15:50.464Z,15.86
2023-03-25T11:16:50.233Z,16.10
2023-03-25T11:17:50.256Z,16.12
2023-03-25T11:18:50.153Z,16.09
2023-03-25T11:19:50.137Z,16.04
2023-03-25T11:20:50.130Z,16.08
2023-03-25T11:21:50.128Z,15.91
2023-03-25T11:22:50.125Z,15.73
2023-03-25T11:23:50.144Z,15.44
2023-03-25T11:24:50.089Z,15.31
2023-03-25T11:25:50.284Z,15.00
2023-03-25T11:26:50.056Z,15.04
2023-03-25T11:27:50.051Z,15.07
2023-03-25T11:28:50.052Z,15.29
2023-03-25T11:29:50.028Z,15.35
2023-03-25T11:30:50.049Z,15.11
2023-03-25T11:31:49.992Z,15.06
2023-03-25T11:32:50.041Z,15.00
2023-03-25T11:33:49.986Z,14.97
2023-03-25T11:34:50.015Z,15.00
2023-03-25T11:35:50.243Z,14.99
2023-03-25T11:36:49.941Z,14.99
2023-03-25T11:37:49.952Z,14.96
2023-03-25T11:38:49.925Z,14.97
2023-03-25T11:39:49.932Z,14.94
2023-03-25T11:40:49.904Z,14.91
2023-03-25T11:41:49.902Z,14.88
2023-03-25T11:42:50.008Z,14.68
2023-03-25T11:43:49.868Z,14.60
2023-03-25T11:44:49.890Z,14.62
2023-03-25T11:45:49.963Z,14.47
2023-03-25T11:46:49.854Z,14.59
2023-03-25T11:47:49.863Z,14.66
2023-03-25T11:48:49.816Z,14.65
2023-03-25T11:49:49.791Z,14.82
2023-03-25T11:50:49.800Z,14.97
2023-03-25T11:51:51.824Z,14.99
2023-03-25T11:52:49.764Z,15.03
2023-03-25T11:53:49.758Z,15.06
2023-03-25T11:54:49.765Z,15.17
2023-03-25T11:55:49.998Z,15.22
2023-03-25T11:56:49.805Z,15.21
2023-03-25T11:57:49.701Z,15.04
2023-03-25T11:58:49.708Z,14.97
2023-03-25T11:59:49.723Z,14.96
2023-03-25T12:00:49.708Z,14.97
2023-03-25T12:01:49.682Z,15.04
2023-03-25T12:02:49.803Z,15.24
2023-03-25T12:03:49.763Z,15.22
2023-03-25T12:04:49.639Z,15.24
2023-03-25T12:05:49.794Z,15.27
2023-03-25T12:06:49.657Z,15.29
2023-03-25T12:07:49.615Z,15.31
2023-03-25T12:08:49.607Z,15.27
2023-03-25T12:09:49.582Z,15.06
2023-03-25T12:10:49.567Z,15.06
2023-03-25T12:11:49.553Z,14.99
2023-03-25T12:12:49.555Z,15.00
2023-03-25T12:13:49.528Z,15.02
2023-03-25T12:14:49.535Z,14.97
2023-03-25T12:15:49.697Z,15.03
2023-03-25T12:16:49.507Z,15.02
2023-03-25T12:17:49.536Z,15.21
2023-03-25T12:18:49.504Z,15.24
2023-03-25T12:19:49.470Z,15.24
2023-03-25T12:20:49.624Z,15.29
2023-03-25T12:21:49.446Z,15.27
2023-03-25T12:22:49.464Z,15.36
2023-03-25T12:23:49.448Z,15.43
2023-03-25T12:24:49.417Z,15.43
2023-03-25T12:25:49.823Z,15.44
2023-03-25T12:26:49.391Z,15.42
2023-03-25T12:27:49.376Z,15.25
2023-03-25T12:28:49.383Z,15.25
2023-03-25T12:29:49.377Z,15.14
2023-03-25T12:30:49.543Z,15.00
2023-03-25T12:31:49.384Z,14.97
2023-03-25T12:32:49.377Z,15.06
2023-03-25T12:33:49.310Z,15.07
2023-03-25T12:34:49.353Z,15.10
2023-03-25T12:35:49.326Z,15.04
2023-03-25T12:36:49.282Z,14.96
2023-03-25T12:37:49.285Z,15.17
2023-03-25T12:38:49.254Z,15.21
2023-03-25T12:39:49.250Z,15.24
2023-03-25T12:40:49.450Z,15.27
2023-03-25T12:41:49.223Z,15.28
2023-03-25T12:42:49.218Z,15.22
2023-03-25T12:43:49.201Z,15.14
2023-03-25T12:44:49.213Z,15.27
2023-03-25T12:45:49.237Z,15.27
2023-03-25T12:46:49.190Z,15.22
2023-03-25T12:47:49.200Z,15.19
2023-03-25T12:48:49.152Z,15.24
2023-03-25T12:49:49.144Z,15.19
2023-03-25T12:50:49.363Z,15.28
2023-03-25T12:51:49.135Z,15.35
2023-03-25T12:52:49.121Z,15.43